sensor_id;sensor_type;location;lat;lon;timestamp;pressure;altitude;pressure_sealevel;temperature;humidity
26775;BME280;14362;51.902;7.626;2023-05-09T00:00:52;101215.47;;;16.04;100.00
26775;BME280;14362;51.902;7.626;2023-05-09T00:04:53;101212.53;;;16.00;100.00
26775;BME280;14362;51.902;7.626;2023-05-09T00:08:55;101205.13;;;15.96;100.00
26775;BME280;14362;51.902;7.626;2023-05-09T00:12:57;101202.09;;;15.89;100.00
26775;BME280;14362;51.902;7.626;2023-05-09T00:17:00;101203.00;;;15.81;100.00
26775;BME280;14362;51.902;7.626;2023-05-09T00:21:01;101197.25;;;15.77;100.00
26775;BME280;14362;51.902;7.626;2023-05-09T00:25:04;101186.13;;;15.81;100.00
26775;BME280;14362;51.902;7.626;2023-05-09T00:29:07;101173.00;;;15.73;100.00
26775;BME280;14362;51.902;7.626;2023-05-09T00:33:08;101176.50;;;15.70;100.00
26775;BME280;14362;51.902;7.626;2023-05-09T00:37:10;101170.41;;;15.68;100.00
26775;BME280;14362;51.902;7.626;2023-05-09T00:41:11;101159.50;;;15.66;100.00
26775;BME280;14362;51.902;7.626;2023-05-09T00:45:14;101167.00;;;15.62;100.00
26775;BME280;14362;51.902;7.626;2023-05-09T00:49:15;101160.91;;;15.60;100.00
26775;BME280;14362;51.902;7.626;2023-05-09T00:53:17;101158.44;;;15.59;100.00
26775;BME280;14362;51.902;7.626;2023-05-09T00:57:18;101155.88;;;15.54;100.00
26775;BME280;14362;51.902;7.626;2023-05-09T01:01:22;101148.47;;;15.49;100.00
26775;BME280;14362;51.902;7.626;2023-05-09T01:05:31;101147.88;;;15.44;100.00
26775;BME280;14362;51.902;7.626;2023-05-09T01:09:42;101137.78;;;15.43;100.00
26775;BME280;14362;51.902;7.626;2023-05-09T01:13:52;101129.47;;;15.35;100.00
26775;BME280;14362;51.902;7.626;2023-05-09T01:17:59;101119.97;;;15.27;100.00
26775;BME280;14362;51.902;7.626;2023-05-09T01:22:06;101122.13;;;15.22;100.00
26775;BME280;14362;51.902;7.626;2023-05-09T01:26:12;101121.53;;;15.16;100.00
26775;BME280;14362;51.902;7.626;2023-05-09T01:30:23;101115.44;;;15.14;100.00
26775;BME280;14362;51.902;7.626;2023-05-09T01:34:27;101103.94;;;15.07;100.00
26775;BME280;14362;51.902;7.626;2023-05-09T01:38:31;101089.78;;;15.04;100.00
26775;BME280;14362;51.902;7.626;2023-05-09T01:42:38;101100.53;;;15.02;100.00
26775;BME280;14362;51.902;7.626;2023-05-09T01:46:43;101096.09;;;15.01;100.00
26775;BME280;14362;51.902;7.626;2023-05-09T01:50:45;101096.78;;;14.98;100.00
26775;BME280;14362;51.902;7.626;2023-05-09T01:54:49;101094.16;;;14.93;100.00
26775;BME280;14362;51.902;7.626;2023-05-09T01:58:51;101090.44;;;14.89;100.00
26775;BME280;14362;51.902;7.626;2023-05-09T02:02:56;101085.50;;;14.86;100.00
26775;BME280;14362;51.902;7.626;2023-05-09T02:06:58;101085.03;;;14.84;100.00
26775;BME280;14362;51.902;7.626;2023-05-09T02:11:01;101080.09;;;14.81;100.00
26775;BME280;14362;51.902;7.626;2023-05-09T02:15:03;101089.66;;;14.80;100.00
26775;BME280;14362;51.902;7.626;2023-05-09T02:19:08;101078.31;;;14.76;100.00
26775;BME280;14362;51.902;7.626;2023-05-09T02:23:10;101078.31;;;14.76;100.00
26775;BME280;14362;51.902;7.626;2023-05-09T02:27:13;101080.53;;;14.71;100.00
26775;BME280;14362;51.902;7.626;2023-05-09T02:31:15;101072.63;;;14.64;100.00
26775;BME280;14362;51.902;7.626;2023-05-09T02:35:21;101073.00;;;14.63;100.00
26775;BME280;14362;51.902;7.626;2023-05-09T02:39:23;101075.00;;;14.62;100.00
26775;BME280;14362;51.902;7.626;2023-05-09T02:43:25;101078.31;;;14.56;100.00
26775;BME280;14362;51.902;7.626;2023-05-09T02:47:26;101074.22;;;14.53;100.00
26775;BME280;14362;51.902;7.626;2023-05-09T02:51:29;101063.81;;;14.54;100.00
26775;BME280;14362;51.902;7.626;2023-05-09T02:55:31;101063.47;;;14.55;100.00
26775;BME280;14362;51.902;7.626;2023-05-09T02:59:32;101061.47;;;14.56;100.00
26775;BME280;14362;51.902;7.626;2023-05-09T03:03:33;101065.44;;;14.55;100.00
26775;BME280;14362;51.902;7.626;2023-05-09T03:07:36;101058.19;;;14.54;100.00
26775;BME280;14362;51.902;7.626;2023-05-09T03:11:38;101055.41;;;14.54;100.00
26775;BME280;14362;51.902;7.626;2023-05-09T03:15:39;101045.81;;;14.55;100.00
26775;BME280;14362;51.902;7.626;2023-05-09T03:19:40;101056.22;;;14.54;100.00
26775;BME280;14362;51.902;7.626;2023-05-09T03:23:43;101048.19;;;14.53;100.00
26775;BME280;14362;51.902;7.626;2023-05-09T03:27:44;101047.34;;;14.52;100.00
26775;BME280;14362;51.902;7.626;2023-05-09T03:31:46;101044.41;;;14.49;100.00
26775;BME280;14362;51.902;7.626;2023-05-09T03:35:47;101040.09;;;14.51;100.00
26775;BME280;14362;51.902;7.626;2023-05-09T03:39:50;101042.88;;;14.51;100.00
26775;BME280;14362;51.902;7.626;2023-05-09T03:43:51;101040.91;;;14.52;100.00
26775;BME280;14362;51.902;7.626;2023-05-09T03:47:53;101037.41;;;14.55;100.00
26775;BME280;14362;51.902;7.626;2023-05-09T03:51:54;101032.16;;;14.53;100.00
26775;BME280;14362;51.902;7.626;2023-05-09T03:55:57;101028.97;;;14.55;100.00
26775;BME280;14362;51.902;7.626;2023-05-09T03:59:58;101027.00;;;14.55;100.00
26775;BME280;14362;51.902;7.626;2023-05-09T04:04:00;101028.31;;;14.58;100.00
26775;BME280;14362;51.902;7.626;2023-05-09T04:08:01;101020.38;;;14.60;100.00
26775;BME280;14362;51.902;7.626;2023-05-09T04:12:05;101023.66;;;14.62;100.00
26775;BME280;14362;51.902;7.626;2023-05-09T04:16:06;101022.13;;;14.64;100.00
26775;BME280;14362;51.902;7.626;2023-05-09T04:20:09;101019.97;;;14.70;100.00
26775;BME280;14362;51.902;7.626;2023-05-09T04:24:11;101026.72;;;14.69;100.00
26775;BME280;14362;51.902;7.626;2023-05-09T04:28:14;101030.47;;;14.73;100.00
26775;BME280;14362;51.902;7.626;2023-05-09T04:32:15;101031.31;;;14.73;100.00
26775;BME280;14362;51.902;7.626;2023-05-09T04:36:17;101024.41;;;14.71;100.00
26775;BME280;14362;51.902;7.626;2023-05-09T04:40:18;101024.06;;;14.72;100.00
26775;BME280;14362;51.902;7.626;2023-05-09T04:44:21;101024.41;;;14.71;100.00
26775;BME280;14362;51.902;7.626;2023-05-09T04:48:23;101014.81;;;14.72;100.00
26775;BME280;14362;51.902;7.626;2023-05-09T04:52:24;100999.75;;;14.76;100.00
26775;BME280;14362;51.902;7.626;2023-05-09T04:56:26;101005.84;;;14.78;100.00
26775;BME280;14362;51.902;7.626;2023-05-09T05:00:28;100989.47;;;14.80;100.00
26775;BME280;14362;51.902;7.626;2023-05-09T05:04:30;100983.78;;;14.89;100.00
26775;BME280;14362;51.902;7.626;2023-05-09T05:08:32;100983.53;;;14.94;100.00
26775;BME280;14362;51.902;7.626;2023-05-09T05:12:33;100976.91;;;14.98;100.00
26775;BME280;14362;51.902;7.626;2023-05-09T05:16:36;100975.16;;;15.06;100.00
26775;BME280;14362;51.902;7.626;2023-05-09T05:20:38;100976.91;;;15.10;100.00
26775;BME280;14362;51.902;7.626;2023-05-09T05:24:40;100972.34;;;15.18;100.00
26775;BME280;14362;51.902;7.626;2023-05-09T05:28:41;100971.78;;;15.24;100.00
26775;BME280;14362;51.902;7.626;2023-05-09T05:32:44;100957.66;;;15.33;100.00
26775;BME280;14362;51.902;7.626;2023-05-09T05:36:45;100958.59;;;15.37;100.00
26775;BME280;14362;51.902;7.626;2023-05-09T05:40:47;100957.78;;;15.36;100.00
26775;BME280;14362;51.902;7.626;2023-05-09T05:44:48;100946.28;;;15.41;100.00
26775;BME280;14362;51.902;7.626;2023-05-09T05:48:51;100952.75;;;15.41;100.00
26775;BME280;14362;51.902;7.626;2023-05-09T05:52:52;100952.06;;;15.44;100.00
26775;BME280;14362;51.902;7.626;2023-05-09T05:56:54;100957.66;;;15.44;100.00
26775;BME280;14362;51.902;7.626;2023-05-09T06:00:55;100950.50;;;15.47;100.00
26775;BME280;14362;51.902;7.626;2023-05-09T06:04:58;100951.00;;;15.49;100.00
26775;BME280;14362;51.902;7.626;2023-05-09T06:08:59;100941.16;;;15.55;100.00
26775;BME280;14362;51.902;7.626;2023-05-09T06:13:01;100942.06;;;15.59;100.00
26775;BME280;14362;51.902;7.626;2023-05-09T06:17:02;100937.75;;;15.61;100.00
26775;BME280;14362;51.902;7.626;2023-05-09T06:21:06;100937.84;;;15.65;100.00
26775;BME280;14362;51.902;7.626;2023-05-09T06:25:08;100936.19;;;15.76;100.00
26775;BME280;14362;51.902;7.626;2023-05-09T06:29:09;100930.47;;;15.84;100.00
26775;BME280;14362;51.902;7.626;2023-05-09T06:33:10;100927.50;;;15.93;100.00
26775;BME280;14362;51.902;7.626;2023-05-09T06:37:13;100922.91;;;16.00;100.00
26775;BME280;14362;51.902;7.626;2023-05-09T06:41:15;100918.31;;;16.08;100.00
26775;BME280;14362;51.902;7.626;2023-05-09T06:45:16;100915.06;;;16.06;100.00
26775;BME280;14362;51.902;7.626;2023-05-09T06:49:17;100907.41;;;16.06;100.00
26775;BME280;14362;51.902;7.626;2023-05-09T06:53:20;100904.72;;;16.10;100.00
26775;BME280;14362;51.902;7.626;2023-05-09T06:57:22;100896.00;;;16.15;100.00
26775;BME280;14362;51.902;7.626;2023-05-09T07:01:23;100894.59;;;16.21;100.00
26775;BME280;14362;51.902;7.626;2023-05-09T07:05:25;100879.00;;;16.23;100.00
26775;BME280;14362;51.902;7.626;2023-05-09T07:09:27;100873.13;;;16.28;100.00
26775;BME280;14362;51.902;7.626;2023-05-09T07:13:29;100871.72;;;16.34;100.00
26775;BME280;14362;51.902;7.626;2023-05-09T07:17:30;100870.63;;;16.39;100.00
26775;BME280;14362;51.902;7.626;2023-05-09T07:21:31;100877.91;;;16.40;100.00
26775;BME280;14362;51.902;7.626;2023-05-09T07:25:35;100867.31;;;16.48;100.00
26775;BME280;14362;51.902;7.626;2023-05-09T07:29:36;100862.28;;;16.42;100.00
26775;BME280;14362;51.902;7.626;2023-05-09T07:33:38;100850.22;;;16.42;100.00
26775;BME280;14362;51.902;7.626;2023-05-09T07:37:39;100848.06;;;16.50;100.00
26775;BME280;14362;51.902;7.626;2023-05-09T07:41:42;100852.44;;;16.63;100.00
26775;BME280;14362;51.902;7.626;2023-05-09T07:45:44;100845.25;;;16.66;100.00
26775;BME280;14362;51.902;7.626;2023-05-09T07:49:46;100845.38;;;16.69;100.00
26775;BME280;14362;51.902;7.626;2023-05-09T07:53:47;100828.72;;;16.80;100.00
26775;BME280;14362;51.902;7.626;2023-05-09T07:57:50;100821.84;;;16.93;100.00
26775;BME280;14362;51.902;7.626;2023-05-09T08:01:51;100822.09;;;17.03;100.00
26775;BME280;14362;51.902;7.626;2023-05-09T08:05:53;100812.16;;;17.25;100.00
26775;BME280;14362;51.902;7.626;2023-05-09T08:09:55;100805.69;;;17.40;100.00
26775;BME280;14362;51.902;7.626;2023-05-09T08:13:58;100798.44;;;17.57;100.00
26775;BME280;14362;51.902;7.626;2023-05-09T08:17:59;100800.75;;;17.71;100.00
26775;BME280;14362;51.902;7.626;2023-05-09T08:22:00;100791.34;;;17.82;100.00
26775;BME280;14362;51.902;7.626;2023-05-09T08:26:02;100776.78;;;17.99;100.00
26775;BME280;14362;51.902;7.626;2023-05-09T08:30:06;100773.66;;;18.23;100.00
26775;BME280;14362;51.902;7.626;2023-05-09T08:34:08;100767.63;;;18.25;100.00
26775;BME280;14362;51.902;7.626;2023-05-09T08:38:09;100763.22;;;18.46;100.00
26775;BME280;14362;51.902;7.626;2023-05-09T08:42:11;100751.03;;;18.64;100.00
26775;BME280;14362;51.902;7.626;2023-05-09T08:46:17;100757.16;;;18.70;100.00
26775;BME280;14362;51.902;7.626;2023-05-09T08:50:23;100751.19;;;18.75;100.00
26775;BME280;14362;51.902;7.626;2023-05-09T08:54:25;100750.13;;;18.60;100.00
26775;BME280;14362;51.902;7.626;2023-05-09T08:58:27;100749.78;;;18.62;100.00
26775;BME280;14362;51.902;7.626;2023-05-09T09:02:31;100745.06;;;18.69;100.00
26775;BME280;14362;51.902;7.626;2023-05-09T09:06:34;100743.44;;;18.68;100.00
26775;BME280;14362;51.902;7.626;2023-05-09T09:10:38;100741.75;;;18.64;100.00
26775;BME280;14362;51.902;7.626;2023-05-09T09:14:43;100735.19;;;18.56;100.00
26775;BME280;14362;51.902;7.626;2023-05-09T09:18:50;100724.44;;;18.43;100.00
26775;BME280;14362;51.902;7.626;2023-05-09T09:22:54;100725.94;;;18.37;100.00
26775;BME280;14362;51.902;7.626;2023-05-09T09:27:03;100715.94;;;18.40;100.00
26775;BME280;14362;51.902;7.626;2023-05-09T09:31:18;100718.81;;;18.43;100.00
26775;BME280;14362;51.902;7.626;2023-05-09T09:35:21;100707.47;;;18.40;100.00
26775;BME280;14362;51.902;7.626;2023-05-09T09:39:24;100707.94;;;18.45;100.00
26775;BME280;14362;51.902;7.626;2023-05-09T09:43:28;100701.47;;;18.67;100.00
26775;BME280;14362;51.902;7.626;2023-05-09T09:47:31;100703.50;;;18.70;100.00
26775;BME280;14362;51.902;7.626;2023-05-09T09:51:34;100694.34;;;18.76;100.00
26775;BME280;14362;51.902;7.626;2023-05-09T09:55:35;100684.66;;;19.03;100.00
26775;BME280;14362;51.902;7.626;2023-05-09T09:59:39;100678.94;;;19.26;100.00
26775;BME280;14362;51.902;7.626;2023-05-09T10:03:43;100674.53;;;19.25;100.00
26775;BME280;14362;51.902;7.626;2023-05-09T10:07:49;100667.44;;;19.41;100.00
26775;BME280;14362;51.902;7.626;2023-05-09T10:11:52;100667.16;;;19.50;100.00
26775;BME280;14362;51.902;7.626;2023-05-09T10:15:56;100669.50;;;19.44;100.00
26775;BME280;14362;51.902;7.626;2023-05-09T10:20:01;100666.66;;;19.41;100.00
26775;BME280;14362;51.902;7.626;2023-05-09T10:24:06;100658.94;;;19.38;100.00
26775;BME280;14362;51.902;7.626;2023-05-09T10:28:10;100649.31;;;19.46;100.00
26775;BME280;14362;51.902;7.626;2023-05-09T10:32:15;100641.59;;;19.75;100.00
26775;BME280;14362;51.902;7.626;2023-05-09T10:36:20;100639.81;;;19.97;100.00
26775;BME280;14362;51.902;7.626;2023-05-09T10:40:24;100624.91;;;20.00;100.00
26775;BME280;14362;51.902;7.626;2023-05-09T10:44:26;100617.81;;;20.20;100.00
26775;BME280;14362;51.902;7.626;2023-05-09T10:48:28;100608.19;;;20.28;100.00
26775;BME280;14362;51.902;7.626;2023-05-09T10:52:31;100601.03;;;20.44;100.00
26775;BME280;14362;51.902;7.626;2023-05-09T10:56:34;100586.88;;;20.44;100.00
26775;BME280;14362;51.902;7.626;2023-05-09T11:00:39;100580.09;;;20.59;100.00
26775;BME280;14362;51.902;7.626;2023-05-09T11:04:41;100576.50;;;20.65;100.00
26775;BME280;14362;51.902;7.626;2023-05-09T11:08:43;100570.41;;;20.63;100.00
26775;BME280;14362;51.902;7.626;2023-05-09T11:12:57;100573.78;;;20.86;100.00
26775;BME280;14362;51.902;7.626;2023-05-09T11:17:00;100565.75;;;20.99;100.00
26775;BME280;14362;51.902;7.626;2023-05-09T11:21:07;100549.16;;;20.94;100.00
26775;BME280;14362;51.902;7.626;2023-05-09T11:25:10;100544.75;;;21.07;100.00
26775;BME280;14362;51.902;7.626;2023-05-09T11:29:14;100548.38;;;21.04;100.00
26775;BME280;14362;51.902;7.626;2023-05-09T11:33:22;100539.56;;;21.26;100.00
26775;BME280;14362;51.902;7.626;2023-05-09T11:37:29;100526.19;;;21.34;100.00
26775;BME280;14362;51.902;7.626;2023-05-09T11:41:38;100532.25;;;21.18;100.00
26775;BME280;14362;51.902;7.626;2023-05-09T11:45:41;100518.09;;;21.32;100.00
26775;BME280;14362;51.902;7.626;2023-05-09T11:49:43;100516.53;;;21.56;100.00
26775;BME280;14362;51.902;7.626;2023-05-09T11:53:48;100506.78;;;21.39;100.00
26775;BME280;14362;51.902;7.626;2023-05-09T11:57:51;100508.41;;;21.44;100.00
26775;BME280;14362;51.902;7.626;2023-05-09T12:01:54;100498.69;;;21.48;100.00
26775;BME280;14362;51.902;7.626;2023-05-09T12:05:56;100494.69;;;21.70;100.00
26775;BME280;14362;51.902;7.626;2023-05-09T12:09:58;100476.44;;;21.74;100.00
26775;BME280;14362;51.902;7.626;2023-05-09T12:14:01;100472.00;;;21.73;100.00
26775;BME280;14362;51.902;7.626;2023-05-09T12:18:06;100466.34;;;21.87;100.00
26775;BME280;14362;51.902;7.626;2023-05-09T12:22:07;100458.59;;;21.98;100.00
26775;BME280;14362;51.902;7.626;2023-05-09T12:26:09;100463.03;;;22.13;100.00
26775;BME280;14362;51.902;7.626;2023-05-09T12:30:11;100451.31;;;21.94;100.00
26775;BME280;14362;51.902;7.626;2023-05-09T12:34:16;100446.44;;;21.94;100.00
26775;BME280;14362;51.902;7.626;2023-05-09T12:38:20;100438.75;;;21.91;100.00
26775;BME280;14362;51.902;7.626;2023-05-09T12:42:22;100442.00;;;21.79;100.00
26775;BME280;14362;51.902;7.626;2023-05-09T12:46:24;100427.81;;;21.86;100.00
26775;BME280;14362;51.902;7.626;2023-05-09T12:50:31;100424.53;;;22.05;100.00
26775;BME280;14362;51.902;7.626;2023-05-09T12:54:34;100421.31;;;21.75;100.00
26775;BME280;14362;51.902;7.626;2023-05-09T12:58:36;100415.69;;;21.69;100.00
26775;BME280;14362;51.902;7.626;2023-05-09T13:02:39;100415.66;;;21.65;100.00
26775;BME280;14362;51.902;7.626;2023-05-09T13:06:48;100413.63;;;21.59;100.00
26775;BME280;14362;51.902;7.626;2023-05-09T13:10:50;100404.72;;;21.64;100.00
26775;BME280;14362;51.902;7.626;2023-05-09T13:14:51;100401.88;;;21.50;100.00
26775;BME280;14362;51.902;7.626;2023-05-09T13:18:53;100392.13;;;21.33;100.00
26775;BME280;14362;51.902;7.626;2023-05-09T13:22:56;100390.09;;;21.23;100.00
26775;BME280;14362;51.902;7.626;2023-05-09T13:26:57;100378.34;;;21.18;100.00
26775;BME280;14362;51.902;7.626;2023-05-09T13:30:58;100368.25;;;21.24;100.00
26775;BME280;14362;51.902;7.626;2023-05-09T13:35:00;100375.13;;;21.12;100.00
26775;BME280;14362;51.902;7.626;2023-05-09T13:39:03;100362.47;;;20.75;100.00
26775;BME280;14362;51.902;7.626;2023-05-09T13:43:04;100354.69;;;20.48;100.00
26775;BME280;14362;51.902;7.626;2023-05-09T13:47:05;100366.38;;;20.36;100.00
26775;BME280;14362;51.902;7.626;2023-05-09T13:51:07;100386.34;;;19.89;100.00
26775;BME280;14362;51.902;7.626;2023-05-09T13:55:11;100383.19;;;19.44;100.00
26775;BME280;14362;51.902;7.626;2023-05-09T13:59:12;100397.38;;;19.11;100.00
26775;BME280;14362;51.902;7.626;2023-05-09T14:03:14;100372.75;;;18.68;100.00
26775;BME280;14362;51.902;7.626;2023-05-09T14:07:15;100372.84;;;18.42;100.00
26775;BME280;14362;51.902;7.626;2023-05-09T14:11:18;100368.59;;;18.26;100.00
26775;BME280;14362;51.902;7.626;2023-05-09T14:15:20;100365.41;;;18.27;100.00
26775;BME280;14362;51.902;7.626;2023-05-09T14:19:21;100362.59;;;18.27;100.00
26775;BME280;14362;51.902;7.626;2023-05-09T14:23:23;100362.88;;;18.22;100.00
26775;BME280;14362;51.902;7.626;2023-05-09T14:27:26;100358.00;;;18.19;100.00
26775;BME280;14362;51.902;7.626;2023-05-09T14:31:27;100359.97;;;18.15;100.00
26775;BME280;14362;51.902;7.626;2023-05-09T14:35:28;100357.13;;;18.12;100.00
26775;BME280;14362;51.902;7.626;2023-05-09T14:39:32;100350.25;;;18.09;100.00
26775;BME280;14362;51.902;7.626;2023-05-09T14:43:35;100343.41;;;18.10;100.00
26775;BME280;14362;51.902;7.626;2023-05-09T14:47:37;100345.22;;;17.96;100.00
26775;BME280;14362;51.902;7.626;2023-05-09T14:51:38;100354.41;;;17.89;100.00
26775;BME280;14362;51.902;7.626;2023-05-09T14:55:39;100346.66;;;17.83;100.00
26775;BME280;14362;51.902;7.626;2023-05-09T14:59:42;100335.59;;;17.71;100.00
26775;BME280;14362;51.902;7.626;2023-05-09T15:03:43;100327.44;;;17.62;100.00
26775;BME280;14362;51.902;7.626;2023-05-09T15:07:46;100324.84;;;17.50;100.00
26775;BME280;14362;51.902;7.626;2023-05-09T15:11:48;100317.47;;;17.43;100.00
26775;BME280;14362;51.902;7.626;2023-05-09T15:15:51;100317.31;;;17.32;100.00
26775;BME280;14362;51.902;7.626;2023-05-09T15:19:52;100301.84;;;17.23;100.00
26775;BME280;14362;51.902;7.626;2023-05-09T15:23:54;100297.81;;;17.24;100.00
26775;BME280;14362;51.902;7.626;2023-05-09T15:27:55;100301.78;;;17.19;100.00
26775;BME280;14362;51.902;7.626;2023-05-09T15:31:59;100305.84;;;17.22;100.00
26775;BME280;14362;51.902;7.626;2023-05-09T15:36:01;100302.06;;;17.11;100.00
26775;BME280;14362;51.902;7.626;2023-05-09T15:40:03;100320.44;;;17.05;100.00
26775;BME280;14362;51.902;7.626;2023-05-09T15:44:04;100320.00;;;17.03;100.00
26775;BME280;14362;51.902;7.626;2023-05-09T15:48:07;100318.38;;;17.02;100.00
26775;BME280;14362;51.902;7.626;2023-05-09T15:52:09;100317.09;;;16.96;100.00
26775;BME280;14362;51.902;7.626;2023-05-09T15:56:10;100311.53;;;16.99;100.00
26775;BME280;14362;51.902;7.626;2023-05-09T16:00:14;100304.81;;;17.07;100.00
26775;BME280;14362;51.902;7.626;2023-05-09T16:04:17;100311.56;;;17.03;100.00
26775;BME280;14362;51.902;7.626;2023-05-09T16:08:19;100311.66;;;17.06;100.00
26775;BME280;14362;51.902;7.626;2023-05-09T16:12:20;100308.44;;;17.08;100.00
26775;BME280;14362;51.902;7.626;2023-05-09T16:16:21;100307.25;;;17.09;100.00
26775;BME280;14362;51.902;7.626;2023-05-09T16:20:24;100308.44;;;17.08;100.00
26775;BME280;14362;51.902;7.626;2023-05-09T16:24:25;100311.66;;;17.06;100.00
26775;BME280;14362;51.902;7.626;2023-05-09T16:28:27;100299.56;;;17.06;100.00
26775;BME280;14362;51.902;7.626;2023-05-09T16:32:29;100298.38;;;17.07;100.00
26775;BME280;14362;51.902;7.626;2023-05-09T16:36:32;100291.53;;;17.08;100.00
26775;BME280;14362;51.902;7.626;2023-05-09T16:40:33;100283.84;;;17.05;100.00
26775;BME280;14362;51.902;7.626;2023-05-09T16:44:35;100285.78;;;17.01;100.00
26775;BME280;14362;51.902;7.626;2023-05-09T16:48:36;100283.69;;;16.94;100.00
26775;BME280;14362;51.902;7.626;2023-05-09T16:52:39;100264.66;;;16.88;100.00
26775;BME280;14362;51.902;7.626;2023-05-09T16:56:41;100259.78;;;16.85;100.00
26775;BME280;14362;51.902;7.626;2023-05-09T17:00:42;100267.78;;;16.83;100.00
26775;BME280;14362;51.902;7.626;2023-05-09T17:04:43;100262.56;;;16.81;100.00
26775;BME280;14362;51.902;7.626;2023-05-09T17:08:46;100286.66;;;16.79;100.00
26775;BME280;14362;51.902;7.626;2023-05-09T17:12:48;100302.66;;;16.75;100.00
26775;BME280;14362;51.902;7.626;2023-05-09T17:16:49;100302.97;;;16.47;100.00
26775;BME280;14362;51.902;7.626;2023-05-09T17:20:51;100291.81;;;16.32;100.00
26775;BME280;14362;51.902;7.626;2023-05-09T17:24:54;100277.06;;;16.20;100.00
26775;BME280;14362;51.902;7.626;2023-05-09T17:28:55;100279.75;;;16.13;100.00
26775;BME280;14362;51.902;7.626;2023-05-09T17:32:57;100280.78;;;16.05;100.00
26775;BME280;14362;51.902;7.626;2023-05-09T17:36:58;100287.97;;;16.02;100.00
26775;BME280;14362;51.902;7.626;2023-05-09T17:41:02;100279.09;;;16.00;100.00
26775;BME280;14362;51.902;7.626;2023-05-09T17:45:05;100279.56;;;16.02;100.00
26775;BME280;14362;51.902;7.626;2023-05-09T17:49:06;100282.34;;;16.02;100.00
26775;BME280;14362;51.902;7.626;2023-05-09T17:53:10;100291.53;;;15.99;100.00
26775;BME280;14362;51.902;7.626;2023-05-09T17:57:13;100293.06;;;15.97;100.00
26775;BME280;14362;51.902;7.626;2023-05-09T18:01:15;100287.00;;;15.95;100.00
26775;BME280;14362;51.902;7.626;2023-05-09T18:05:16;100287.75;;;15.92;100.00
26775;BME280;14362;51.902;7.626;2023-05-09T18:09:17;100285.69;;;15.89;100.00
26775;BME280;14362;51.902;7.626;2023-05-09T18:13:20;100288.50;;;15.89;100.00
26775;BME280;14362;51.902;7.626;2023-05-09T18:17:22;100285.69;;;15.89;100.00
26775;BME280;14362;51.902;7.626;2023-05-09T18:21:23;100285.69;;;15.89;100.00
26775;BME280;14362;51.902;7.626;2023-05-09T18:25:24;100288.50;;;15.89;100.00
26775;BME280;14362;51.902;7.626;2023-05-09T18:29:27;100283.22;;;15.87;100.00
26775;BME280;14362;51.902;7.626;2023-05-09T18:33:29;100277.16;;;15.85;100.00
26775;BME280;14362;51.902;7.626;2023-05-09T18:37:30;100277.59;;;15.87;100.00
26775;BME280;14362;51.902;7.626;2023-05-09T18:41:32;100278.00;;;15.86;100.00
26775;BME280;14362;51.902;7.626;2023-05-09T18:45:34;100285.19;;;15.83;100.00
26775;BME280;14362;51.902;7.626;2023-05-09T18:49:36;100281.47;;;15.79;100.00
26775;BME280;14362;51.902;7.626;2023-05-09T18:53:37;100281.38;;;15.76;100.00
26775;BME280;14362;51.902;7.626;2023-05-09T18:57:39;100283.00;;;15.77;100.00
26775;BME280;14362;51.902;7.626;2023-05-09T19:01:42;100268.91;;;15.73;100.00
26775;BME280;14362;51.902;7.626;2023-05-09T19:05:43;100270.81;;;15.69;100.00
26775;BME280;14362;51.902;7.626;2023-05-09T19:09:46;100264.00;;;15.70;100.00
26775;BME280;14362;51.902;7.626;2023-05-09T19:13:47;100266.81;;;15.70;100.00
26775;BME280;14362;51.902;7.626;2023-05-09T19:17:50;100259.56;;;15.69;100.00
26775;BME280;14362;51.902;7.626;2023-05-09T19:21:51;100269.56;;;15.67;100.00
26775;BME280;14362;51.902;7.626;2023-05-09T19:25:53;100277.16;;;15.66;100.00
26775;BME280;14362;51.902;7.626;2023-05-09T19:29:54;100274.00;;;15.68;100.00
26775;BME280;14362;51.902;7.626;2023-05-09T19:33:57;100269.94;;;15.65;100.00
26775;BME280;14362;51.902;7.626;2023-05-09T19:37:58;100273.94;;;15.64;100.00
26775;BME280;14362;51.902;7.626;2023-05-09T19:42:01;100267.50;;;15.64;100.00
26775;BME280;14362;51.902;7.626;2023-05-09T19:46:03;100262.97;;;15.59;100.00
26775;BME280;14362;51.902;7.626;2023-05-09T19:50:07;100266.13;;;15.58;100.00
26775;BME280;14362;51.902;7.626;2023-05-09T19:54:08;100266.97;;;15.58;100.00
26775;BME280;14362;51.902;7.626;2023-05-09T19:58:10;100268.88;;;15.54;100.00
26775;BME280;14362;51.902;7.626;2023-05-09T20:02:12;100264.81;;;15.52;100.00
26775;BME280;14362;51.902;7.626;2023-05-09T20:06:14;100265.28;;;15.54;100.00
26775;BME280;14362;51.902;7.626;2023-05-09T20:10:16;100252.31;;;15.49;100.00
26775;BME280;14362;51.902;7.626;2023-05-09T20:14:17;100248.72;;;15.49;100.00
26775;BME280;14362;51.902;7.626;2023-05-09T20:18:19;100254.31;;;15.49;100.00
26775;BME280;14362;51.902;7.626;2023-05-09T20:22:21;100247.16;;;15.51;100.00
26775;BME280;14362;51.902;7.626;2023-05-09T20:26:23;100238.66;;;15.48;100.00
26775;BME280;14362;51.902;7.626;2023-05-09T20:30:25;100228.16;;;15.45;100.00
26775;BME280;14362;51.902;7.626;2023-05-09T20:34:26;100225.34;;;15.45;100.00
26775;BME280;14362;51.902;7.626;2023-05-09T20:38:32;100228.16;;;15.45;100.00
26775;BME280;14362;51.902;7.626;2023-05-09T20:42:33;100222.91;;;15.43;100.00
26775;BME280;14362;51.902;7.626;2023-05-09T20:46:35;100208.72;;;15.37;100.00
26775;BME280;14362;51.902;7.626;2023-05-09T20:50:36;100215.94;;;15.38;100.00